Airfield :
LOGIN :

Register | Disclaimer

   EN    FR    IT 

 










Legend :    VFR   Marginal VFR   IFR   Intensive IFR   Very Intensive IFR
Visi :
Ceiling :
>= 8 km
>= 3000ft
5 to 8 km
1000 to 3000 ft
1500m to 5 km
500 to 1000 ft
800 to 1500m
200 to 500 ft
< 800m
< 200 ft
Symbols :   Thunderstorms  Fog  Heavy snow  Heavy precipitations  Wind > 20 kt
SIGMETs :     Misc.  Thunderstorms  Icing  Turbulence  Mountain Waves  Volcanic Ashes







- Airport Elevation : 102 ft
- IATA code : EXT
- Download approach charts


EGTE - Exeter

CURRENT METAR :
  • 211720Z 24016G26KT 6000 -SHRA BKN014 11/09 Q1003

EXPIRED METARs :
  • 211650Z 23016KT 9999 -SHRA BKN020 11/09 Q1002
  • 211620Z 24015KT 9999 8000NW -SHRA BKN020 11/09 Q1003
  • 211550Z 24017KT 9999 8000NW -SHRA BKN020 12/08 Q1002
  • 211520Z 24017G27KT 9999 BKN025CB 12/09 Q1002
  • 211450Z 23021KT 9999 BKN025CB 13/08 Q1002

TAF TAF EGTE
Valid from the 21 at 15:00 until the 22 at 00:00 UTC


211359Z 2115/2124 23018G28KT 9999 SCT020
TEMPO 2115/2124 6000 SHRA
PROB30
TEMPO 2115/2117 25028G38KT 4000 +SHRA BKN014CB
BECMG 2117/2120 26018KT
TEMPO 2117/2124 28022G34KT
PROB30
TEMPO 2117/2120 4000 +SHRA BKN014CB
No reported NOTAMs for that airfield.
2 SIGMETs reported for the London FIR (EGTT) :
 
Severe turbulence
EGTT SIGMET 05 VALID 211800/212200 EGRR
EGTT LONDON FIR SEV TURB FCST SE OF LINE N5500 W00059 - N5332 W00530 SFC/FL060 STNR WKN=
Severe turbulence
EGTT SIGMET 04 VALID 211400/211800 EGRR
EGTT LONDON FIR SEV TURB FCST S OF N5400 SFC/FL060 STNR WKN=



MET'MAP, your aeronautical weather chart ! - Copyright ORBIFLY December 2007 - Disclaimer

ORBIFLY MET'MAP TEAM :

Programming & Development : Alexandra Zaïnal
Concept & Development : Baudouin d'Aumeries
Co-Development & Prog : Marc-Olivier Méhu
Technical & hardware support : Manuel Goepfert

Contact : metmap@orbifly.com




SOURCES & CREDITS :

   NOAA